Edwards, CO (81632)

3:53 PM MDT on July 29, 2016 (GMT -0600)
Edwards CO | | Change Station

Elev 7152 ft 39.65 °N, 106.62 °W | Updated 4 seconds ago

Clear
Clear
84.4 °F
Feels Like 81 °F
N
2.2
Wind Variable Wind from NNE
Gusts 13.6 mph

Today
High -- | Low -- °F
--% Chance of Precip.
Yesterday
High -- | Low -- °F
Precip. -- in
Pressure 30.17 in
Visibility 10.0 miles
Clouds Clear
Heat Index 81 °F
Dew Point 30 °F
Humidity 14%
Rainfall 0.00 in
Snow Depth Not available.
6:03 AM 8:21 PM
Waning Crescent, 19% visible
METAR KEGE 292150Z 35006KT 10SM CLR 31/M01 A3017
Pressure 30.17 in
Visibility 10.0 miles
Clouds Clear
Heat Index 81 °F
Dew Point 30 °F
Humidity 14%
Rainfall 0.00 in
Snow Depth Not available.
6:03 AM 8:21 PM
Waning Crescent, 19% visible
METAR KEGE 292150Z 35006KT 10SM CLR 31/M01 A3017

10-Day Weather Forecast

Almanac

Astronomy

Jul. 29, 2016 Rise Set
Actual Time
Civil Twilight
Nautical Twilight
Astronomical Twilight
Moon
Length of Visible Light
Length of Day
Tomorrow will be .
, % of the Moon is Illuminated

Today's Extremes

State Highs State Lows

Community

WunderPhotos

Upload Photos

1,928,423 photos uploaded!

WunderBlog® & News

Nearby

Air Quality

  Air Quality AQ Index Pollutant
Not available.

Snow Depth

Station Depth Elevation

Earthquake Activity

City Distance Mag. Time & Date
Minimum magnitude displayed is 2.5.

Coastal Water Temperatures

Place Temperature

Stations

Nearby Weather Stations

Station Location Temp. Windchill Dew Point Humidity Wind Precip. Elev Updated Type
                   

Watches & Warnings

There are currently no watches in effect.